sensor_id;sensor_type;location;lat;lon;timestamp;pressure;altitude;pressure_sealevel;temperature;humidity
28626;BME280;18905;42.668;23.364;2023-04-29T00:00:11;95013.94;;;7.67;89.93
28626;BME280;18905;42.668;23.364;2023-04-29T00:02:38;95079.28;;;8.17;88.17
28626;BME280;18905;42.668;23.364;2023-04-29T00:05:10;95144.19;;;8.64;89.20
28626;BME280;18905;42.668;23.364;2023-04-29T00:07:42;95018.91;;;7.87;90.03
28626;BME280;18905;42.668;23.364;2023-04-29T00:10:10;95056.78;;;8.13;89.04
28626;BME280;18905;42.668;23.364;2023-04-29T00:12:40;95091.59;;;8.45;88.22
28626;BME280;18905;42.668;23.364;2023-04-29T00:15:11;95001.09;;;7.91;90.50
28626;BME280;18905;42.668;23.364;2023-04-29T00:17:38;95150.50;;;8.82;88.89
28626;BME280;18905;42.668;23.364;2023-04-29T00:20:07;95055.69;;;8.14;90.46
28626;BME280;18905;42.668;23.364;2023-04-29T00:22:35;95004.19;;;7.85;90.03
28626;BME280;18905;42.668;23.364;2023-04-29T00:25:08;95009.03;;;7.83;91.97
28626;BME280;18905;42.668;23.364;2023-04-29T00:27:36;95096.47;;;8.43;91.51
28626;BME280;18905;42.668;23.364;2023-04-29T00:30:06;95103.56;;;8.39;94.88
28626;BME280;18905;42.668;23.364;2023-04-29T00:32:36;95138.59;;;8.61;93.46
28626;BME280;18905;42.668;23.364;2023-04-29T00:35:05;95066.66;;;8.04;94.15
28626;BME280;18905;42.668;23.364;2023-04-29T00:37:37;95108.75;;;8.35;93.27
28626;BME280;18905;42.668;23.364;2023-04-29T00:40:06;95058.72;;;7.99;92.29
28626;BME280;18905;42.668;23.364;2023-04-29T00:42:33;95002.19;;;7.63;91.31
28626;BME280;18905;42.668;23.364;2023-04-29T00:44:59;95156.84;;;8.50;94.27
28626;BME280;18905;42.668;23.364;2023-04-29T00:47:33;95001.53;;;7.58;96.07
28626;BME280;18905;42.668;23.364;2023-04-29T00:50:01;95098.59;;;8.19;95.54
28626;BME280;18905;42.668;23.364;2023-04-29T00:52:31;95008.19;;;7.60;95.52
28626;BME280;18905;42.668;23.364;2023-04-29T00:55:17;95061.09;;;8.00;94.03
28626;BME280;18905;42.668;23.364;2023-04-29T00:57:44;95139.63;;;8.51;93.31
28626;BME280;18905;42.668;23.364;2023-04-29T01:00:19;95027.69;;;7.79;96.22
28626;BME280;18905;42.668;23.364;2023-04-29T01:02:59;95045.47;;;7.89;97.71
28626;BME280;18905;42.668;23.364;2023-04-29T01:05:39;95122.50;;;8.34;97.31
28626;BME280;18905;42.668;23.364;2023-04-29T01:13:50;95118.81;;;8.30;99.14
28626;BME280;18905;42.668;23.364;2023-04-29T01:16:46;95115.19;;;8.26;99.57
28626;BME280;18905;42.668;23.364;2023-04-29T01:22:23;95024.22;;;7.52;100.00
28626;BME280;18905;42.668;23.364;2023-04-29T01:24:50;94936.59;;;6.88;100.00
28626;BME280;18905;42.668;23.364;2023-04-29T01:27:51;95054.59;;;7.39;100.00
28626;BME280;18905;42.668;23.364;2023-04-29T01:30:34;95045.72;;;6.79;100.00
28626;BME280;18905;42.668;23.364;2023-04-29T01:33:16;95117.06;;;6.99;100.00
28626;BME280;18905;42.668;23.364;2023-04-29T01:41:33;94938.03;;;5.71;100.00
28626;BME280;18905;42.668;23.364;2023-04-29T01:44:01;95051.66;;;5.94;100.00
28626;BME280;18905;42.668;23.364;2023-04-29T01:46:29;94978.09;;;5.63;100.00
28626;BME280;18905;42.668;23.364;2023-04-29T01:48:56;95113.22;;;6.54;100.00
28626;BME280;18905;42.668;23.364;2023-04-29T01:51:22;95007.69;;;5.95;100.00
28626;BME280;18905;42.668;23.364;2023-04-29T01:53:48;95059.69;;;6.31;100.00
28626;BME280;18905;42.668;23.364;2023-04-29T01:56:14;94957.81;;;5.75;100.00
28626;BME280;18905;42.668;23.364;2023-04-29T01:58:40;95110.78;;;6.90;100.00
28626;BME280;18905;42.668;23.364;2023-04-29T02:01:06;95059.19;;;6.61;100.00
28626;BME280;18905;42.668;23.364;2023-04-29T02:03:31;95079.78;;;6.65;100.00
28626;BME280;18905;42.668;23.364;2023-04-29T02:05:59;95063.44;;;6.30;100.00
28626;BME280;18905;42.668;23.364;2023-04-29T02:08:24;94994.09;;;5.68;100.00
28626;BME280;18905;42.668;23.364;2023-04-29T02:10:57;95042.88;;;6.07;100.00
28626;BME280;18905;42.668;23.364;2023-04-29T02:13:24;95112.84;;;6.61;100.00
28626;BME280;18905;42.668;23.364;2023-04-29T02:15:50;95096.69;;;6.66;100.00
28626;BME280;18905;42.668;23.364;2023-04-29T02:18:16;94954.56;;;5.78;100.00
28626;BME280;18905;42.668;23.364;2023-04-29T02:20:43;95064.50;;;6.66;100.00
28626;BME280;18905;42.668;23.364;2023-04-29T02:23:11;94963.78;;;6.09;100.00
28626;BME280;18905;42.668;23.364;2023-04-29T02:25:36;95041.84;;;6.72;100.00
28626;BME280;18905;42.668;23.364;2023-04-29T02:28:02;94979.97;;;6.18;100.00
28626;BME280;18905;42.668;23.364;2023-04-29T02:30:28;95014.13;;;6.44;100.00
28626;BME280;18905;42.668;23.364;2023-04-29T02:32:56;95104.84;;;7.06;100.00
28626;BME280;18905;42.668;23.364;2023-04-29T02:35:23;95059.88;;;6.85;100.00
28626;BME280;18905;42.668;23.364;2023-04-29T02:37:50;94934.72;;;5.79;100.00
28626;BME280;18905;42.668;23.364;2023-04-29T02:40:16;95108.88;;;6.90;100.00
28626;BME280;18905;42.668;23.364;2023-04-29T02:42:42;95063.69;;;6.47;100.00
28626;BME280;18905;42.668;23.364;2023-04-29T02:45:08;94988.91;;;6.13;100.00
28626;BME280;18905;42.668;23.364;2023-04-29T02:47:34;95063.59;;;6.20;100.00
28626;BME280;18905;42.668;23.364;2023-04-29T02:50:00;95057.00;;;6.12;100.00
28626;BME280;18905;42.668;23.364;2023-04-29T02:52:25;95075.31;;;6.24;100.00
28626;BME280;18905;42.668;23.364;2023-04-29T02:54:51;95125.97;;;6.62;100.00
28626;BME280;18905;42.668;23.364;2023-04-29T02:57:19;95063.00;;;6.23;100.00
28626;BME280;18905;42.668;23.364;2023-04-29T02:59:45;95068.72;;;6.16;100.00
28626;BME280;18905;42.668;23.364;2023-04-29T03:02:10;95036.34;;;5.94;100.00
28626;BME280;18905;42.668;23.364;2023-04-29T03:04:37;95017.84;;;5.74;100.00
28626;BME280;18905;42.668;23.364;2023-04-29T03:07:04;95033.31;;;5.82;100.00
28626;BME280;18905;42.668;23.364;2023-04-29T03:09:32;94976.72;;;5.65;100.00
28626;BME280;18905;42.668;23.364;2023-04-29T03:11:57;95040.84;;;5.99;100.00
28626;BME280;18905;42.668;23.364;2023-04-29T03:14:23;95068.72;;;6.16;100.00
28626;BME280;18905;42.668;23.364;2023-04-29T03:16:49;95053.44;;;5.98;100.00
28626;BME280;18905;42.668;23.364;2023-04-29T03:19:15;95074.75;;;6.27;100.00
28626;BME280;18905;42.668;23.364;2023-04-29T03:21:42;94983.91;;;5.70;100.00
28626;BME280;18905;42.668;23.364;2023-04-29T03:24:09;95131.03;;;6.64;100.00
28626;BME280;18905;42.668;23.364;2023-04-29T03:26:35;95017.00;;;5.97;100.00
28626;BME280;18905;42.668;23.364;2023-04-29T03:29:00;94997.16;;;5.80;100.00
28626;BME280;18905;42.668;23.364;2023-04-29T03:31:27;95135.75;;;6.72;100.00
28626;BME280;18905;42.668;23.364;2023-04-29T03:33:54;95163.44;;;6.86;100.00
28626;BME280;18905;42.668;23.364;2023-04-29T03:36:21;95157.28;;;6.85;100.00
28626;BME280;18905;42.668;23.364;2023-04-29T03:38:47;95067.19;;;6.29;100.00
28626;BME280;18905;42.668;23.364;2023-04-29T03:41:12;95060.53;;;6.26;100.00
28626;BME280;18905;42.668;23.364;2023-04-29T03:43:40;95177.22;;;6.98;100.00
28626;BME280;18905;42.668;23.364;2023-04-29T03:46:09;95129.38;;;6.68;100.00
28626;BME280;18905;42.668;23.364;2023-04-29T03:48:35;95011.09;;;6.00;100.00
28626;BME280;18905;42.668;23.364;2023-04-29T03:51:02;95046.91;;;6.23;100.00
28626;BME280;18905;42.668;23.364;2023-04-29T03:53:30;95173.72;;;7.16;100.00
28626;BME280;18905;42.668;23.364;2023-04-29T03:55:57;95129.41;;;6.81;100.00
28626;BME280;18905;42.668;23.364;2023-04-29T03:58:24;94994.75;;;6.15;100.00
28626;BME280;18905;42.668;23.364;2023-04-29T04:00:50;95063.41;;;6.67;100.00
28626;BME280;18905;42.668;23.364;2023-04-29T04:03:16;95058.03;;;6.67;100.00
28626;BME280;18905;42.668;23.364;2023-04-29T04:05:41;95095.25;;;6.87;100.00
28626;BME280;18905;42.668;23.364;2023-04-29T04:08:07;94989.53;;;6.24;100.00
28626;BME280;18905;42.668;23.364;2023-04-29T04:10:35;95154.84;;;7.34;100.00
28626;BME280;18905;42.668;23.364;2023-04-29T04:13:01;95016.16;;;6.52;100.00
28626;BME280;18905;42.668;23.364;2023-04-29T04:15:28;95020.66;;;6.57;100.00
28626;BME280;18905;42.668;23.364;2023-04-29T04:17:54;95020.28;;;6.63;100.00
28626;BME280;18905;42.668;23.364;2023-04-29T04:20:55;95019.66;;;6.66;100.00
28626;BME280;18905;42.668;23.364;2023-04-29T04:23:25;94995.50;;;6.66;100.00
28626;BME280;18905;42.668;23.364;2023-04-29T04:25:51;95019.72;;;6.93;100.00
28626;BME280;18905;42.668;23.364;2023-04-29T04:28:18;95167.63;;;7.83;100.00
28626;BME280;18905;42.668;23.364;2023-04-29T04:30:45;95006.13;;;6.58;100.00
28626;BME280;18905;42.668;23.364;2023-04-29T04:33:10;95112.63;;;7.08;100.00
28626;BME280;18905;42.668;23.364;2023-04-29T04:35:37;95153.44;;;7.23;100.00
28626;BME280;18905;42.668;23.364;2023-04-29T04:38:02;95044.53;;;6.40;100.00
28626;BME280;18905;42.668;23.364;2023-04-29T04:40:29;94972.03;;;5.76;100.00
28626;BME280;18905;42.668;23.364;2023-04-29T04:42:56;95170.34;;;6.73;100.00
28626;BME280;18905;42.668;23.364;2023-04-29T04:45:23;95112.84;;;6.61;100.00
28626;BME280;18905;42.668;23.364;2023-04-29T04:47:49;95019.09;;;6.19;100.00
28626;BME280;18905;42.668;23.364;2023-04-29T04:50:14;95011.22;;;6.09;100.00
28626;BME280;18905;42.668;23.364;2023-04-29T04:52:41;95019.41;;;5.99;100.00
28626;BME280;18905;42.668;23.364;2023-04-29T04:55:08;95052.06;;;6.01;100.00
28626;BME280;18905;42.668;23.364;2023-04-29T04:57:34;95010.47;;;6.03;100.00
28626;BME280;18905;42.668;23.364;2023-04-29T05:00:00;95052.84;;;6.57;100.00
28626;BME280;18905;42.668;23.364;2023-04-29T05:02:26;95002.56;;;6.62;100.00
28626;BME280;18905;42.668;23.364;2023-04-29T05:04:51;95055.34;;;7.12;100.00
28626;BME280;18905;42.668;23.364;2023-04-29T05:07:17;94968.38;;;6.54;100.00
28626;BME280;18905;42.668;23.364;2023-04-29T05:09:43;94983.66;;;6.54;100.00
28626;BME280;18905;42.668;23.364;2023-04-29T05:12:10;94988.59;;;6.92;100.00
28626;BME280;18905;42.668;23.364;2023-04-29T05:14:36;95019.56;;;7.17;100.00
28626;BME280;18905;42.668;23.364;2023-04-29T05:17:03;94997.06;;;7.13;100.00
28626;BME280;18905;42.668;23.364;2023-04-29T05:19:30;94981.66;;;7.32;100.00
28626;BME280;18905;42.668;23.364;2023-04-29T05:21:59;95141.91;;;8.58;100.00
28626;BME280;18905;42.668;23.364;2023-04-29T05:24:26;94978.66;;;7.47;100.00
28626;BME280;18905;42.668;23.364;2023-04-29T05:26:54;95007.28;;;7.65;100.00
28626;BME280;18905;42.668;23.364;2023-04-29T05:29:21;95040.78;;;8.08;100.00
28626;BME280;18905;42.668;23.364;2023-04-29T05:31:50;95084.84;;;8.34;100.00
28626;BME280;18905;42.668;23.364;2023-04-29T05:34:16;95127.31;;;8.94;100.00
28626;BME280;18905;42.668;23.364;2023-04-29T05:36:48;95130.19;;;8.76;100.00
28626;BME280;18905;42.668;23.364;2023-04-29T05:39:14;95127.13;;;8.91;100.00
28626;BME280;18905;42.668;23.364;2023-04-29T05:41:42;95086.66;;;8.60;100.00
28626;BME280;18905;42.668;23.364;2023-04-29T05:44:09;94989.44;;;8.18;100.00
28626;BME280;18905;42.668;23.364;2023-04-29T05:46:39;95120.06;;;9.25;100.00
28626;BME280;18905;42.668;23.364;2023-04-29T05:49:06;95008.28;;;8.62;100.00
28626;BME280;18905;42.668;23.364;2023-04-29T05:51:37;94958.09;;;8.35;100.00
28626;BME280;18905;42.668;23.364;2023-04-29T05:54:07;94976.78;;;8.18;100.00
28626;BME280;18905;42.668;23.364;2023-04-29T05:56:36;95062.66;;;9.16;100.00
28626;BME280;18905;42.668;23.364;2023-04-29T05:59:05;95045.41;;;9.56;96.91
28626;BME280;18905;42.668;23.364;2023-04-29T06:01:31;95109.44;;;10.54;91.91
28626;BME280;18905;42.668;23.364;2023-04-29T06:03:57;95127.00;;;11.63;85.07
28626;BME280;18905;42.668;23.364;2023-04-29T06:06:23;95137.47;;;11.73;81.76
28626;BME280;18905;42.668;23.364;2023-04-29T06:08:57;95049.94;;;11.77;78.61
28626;BME280;18905;42.668;23.364;2023-04-29T06:11:24;94999.19;;;12.44;72.08
28626;BME280;18905;42.668;23.364;2023-04-29T06:14:00;94980.56;;;12.63;67.38
28626;BME280;18905;42.668;23.364;2023-04-29T06:17:01;95116.84;;;13.82;65.21
28626;BME280;18905;42.668;23.364;2023-04-29T06:19:33;95035.00;;;12.70;66.97
28626;BME280;18905;42.668;23.364;2023-04-29T06:22:01;94987.38;;;13.02;63.53
28626;BME280;18905;42.668;23.364;2023-04-29T06:24:28;94972.97;;;12.57;62.12
28626;BME280;18905;42.668;23.364;2023-04-29T06:26:53;94972.31;;;12.92;61.97
28626;BME280;18905;42.668;23.364;2023-04-29T06:29:20;94993.66;;;11.91;66.64
28626;BME280;18905;42.668;23.364;2023-04-29T06:32:32;95121.66;;;13.52;64.37
28626;BME280;18905;42.668;23.364;2023-04-29T06:35:02;95078.06;;;12.84;66.79
28626;BME280;18905;42.668;23.364;2023-04-29T06:37:29;95129.19;;;13.91;62.20
28626;BME280;18905;42.668;23.364;2023-04-29T06:39:55;95096.59;;;13.79;61.22
28626;BME280;18905;42.668;23.364;2023-04-29T06:42:23;95035.34;;;11.99;68.21
28626;BME280;18905;42.668;23.364;2023-04-29T06:44:50;95031.47;;;12.70;65.67
28626;BME280;18905;42.668;23.364;2023-04-29T06:47:18;94962.22;;;11.87;67.44
28626;BME280;18905;42.668;23.364;2023-04-29T06:49:44;94969.09;;;12.25;67.23
28626;BME280;18905;42.668;23.364;2023-04-29T06:52:10;95117.00;;;13.53;63.98
28626;BME280;18905;42.668;23.364;2023-04-29T06:54:36;95095.50;;;14.16;61.04
28626;BME280;18905;42.668;23.364;2023-04-29T06:57:01;95002.28;;;13.52;60.94
28626;BME280;18905;42.668;23.364;2023-04-29T06:59:27;94984.94;;;13.21;60.37
28626;BME280;18905;42.668;23.364;2023-04-29T07:01:53;95074.97;;;13.71;61.27
28626;BME280;18905;42.668;23.364;2023-04-29T07:04:19;95081.72;;;13.53;63.66
28626;BME280;18905;42.668;23.364;2023-04-29T07:06:51;95051.78;;;13.49;63.71
28626;BME280;18905;42.668;23.364;2023-04-29T07:09:34;95101.13;;;13.75;63.29
28626;BME280;18905;42.668;23.364;2023-04-29T07:12:06;95109.59;;;13.41;64.50
28626;BME280;18905;42.668;23.364;2023-04-29T07:14:33;94990.75;;;12.05;68.97
28626;BME280;18905;42.668;23.364;2023-04-29T07:17:01;94985.56;;;12.73;69.30
28626;BME280;18905;42.668;23.364;2023-04-29T07:19:30;95090.91;;;13.60;66.51
28626;BME280;18905;42.668;23.364;2023-04-29T07:21:56;95082.94;;;13.88;66.45
28626;BME280;18905;42.668;23.364;2023-04-29T07:24:22;95095.53;;;14.52;63.12
28626;BME280;18905;42.668;23.364;2023-04-29T07:26:49;94970.41;;;13.61;62.31
28626;BME280;18905;42.668;23.364;2023-04-29T07:29:16;95033.28;;;14.23;61.05
28626;BME280;18905;42.668;23.364;2023-04-29T07:31:42;95058.81;;;14.10;61.26
28626;BME280;18905;42.668;23.364;2023-04-29T07:34:08;94962.34;;;13.29;62.53
28626;BME280;18905;42.668;23.364;2023-04-29T07:36:33;95118.97;;;14.33;61.81
28626;BME280;18905;42.668;23.364;2023-04-29T07:38:59;95008.09;;;14.50;58.33
28626;BME280;18905;42.668;23.364;2023-04-29T07:41:26;95020.72;;;14.70;56.89
28626;BME280;18905;42.668;23.364;2023-04-29T07:43:52;94960.28;;;14.61;55.45
28626;BME280;18905;42.668;23.364;2023-04-29T07:46:18;95077.66;;;16.04;53.63
28626;BME280;18905;42.668;23.364;2023-04-29T07:48:45;95063.22;;;16.19;52.51
28626;BME280;18905;42.668;23.364;2023-04-29T07:51:12;95103.75;;;16.86;49.89
28626;BME280;18905;42.668;23.364;2023-04-29T07:53:39;95093.28;;;17.26;49.48
28626;BME280;18905;42.668;23.364;2023-04-29T07:56:08;95065.16;;;16.69;49.92
28626;BME280;18905;42.668;23.364;2023-04-29T07:58:36;94958.00;;;16.30;49.15
28626;BME280;18905;42.668;23.364;2023-04-29T08:01:10;95095.38;;;17.33;48.59
28626;BME280;18905;42.668;23.364;2023-04-29T08:03:36;95083.69;;;17.13;48.12
28626;BME280;18905;42.668;23.364;2023-04-29T08:06:03;94978.31;;;16.33;48.53
28626;BME280;18905;42.668;23.364;2023-04-29T08:08:32;95009.41;;;16.32;49.03
28626;BME280;18905;42.668;23.364;2023-04-29T08:10:58;94964.09;;;16.58;47.73
28626;BME280;18905;42.668;23.364;2023-04-29T08:13:24;94978.66;;;15.81;48.34
28626;BME280;18905;42.668;23.364;2023-04-29T08:15:51;95081.31;;;17.50;47.35
28626;BME280;18905;42.668;23.364;2023-04-29T08:18:17;94988.75;;;16.46;46.57
28626;BME280;18905;42.668;23.364;2023-04-29T08:20:46;94933.88;;;17.27;44.74
28626;BME280;18905;42.668;23.364;2023-04-29T08:23:14;95016.47;;;18.33;43.83
28626;BME280;18905;42.668;23.364;2023-04-29T08:25:43;94985.13;;;18.83;43.02
28626;BME280;18905;42.668;23.364;2023-04-29T08:28:09;94965.63;;;18.88;42.36
28626;BME280;18905;42.668;23.364;2023-04-29T08:30:39;95073.81;;;20.54;40.22
28626;BME280;18905;42.668;23.364;2023-04-29T08:33:05;94952.44;;;18.93;41.65
28626;BME280;18905;42.668;23.364;2023-04-29T08:35:31;94959.41;;;18.32;41.41
28626;BME280;18905;42.668;23.364;2023-04-29T08:37:57;95068.69;;;18.28;43.71
28626;BME280;18905;42.668;23.364;2023-04-29T08:40:22;94919.91;;;17.10;43.74
28626;BME280;18905;42.668;23.364;2023-04-29T08:42:49;94928.91;;;17.78;42.91
28626;BME280;18905;42.668;23.364;2023-04-29T08:45:18;94996.13;;;18.08;42.43
28626;BME280;18905;42.668;23.364;2023-04-29T08:47:44;94903.34;;;15.54;42.88
28626;BME280;18905;42.668;23.364;2023-04-29T08:50:10;94926.34;;;15.72;43.26
28626;BME280;18905;42.668;23.364;2023-04-29T08:52:37;94945.25;;;16.34;41.09
28626;BME280;18905;42.668;23.364;2023-04-29T08:55:03;94904.91;;;16.40;41.88
28626;BME280;18905;42.668;23.364;2023-04-29T08:57:34;94971.75;;;17.10;41.35
28626;BME280;18905;42.668;23.364;2023-04-29T09:00:06;94922.72;;;17.36;40.96
28626;BME280;18905;42.668;23.364;2023-04-29T09:02:34;94916.66;;;17.23;42.02
28626;BME280;18905;42.668;23.364;2023-04-29T09:05:06;94954.38;;;17.59;39.65
28626;BME280;18905;42.668;23.364;2023-04-29T09:07:34;94931.22;;;17.76;39.72
28626;BME280;18905;42.668;23.364;2023-04-29T09:10:01;95043.91;;;18.66;40.15
28626;BME280;18905;42.668;23.364;2023-04-29T09:12:28;94874.81;;;18.13;40.18
28626;BME280;18905;42.668;23.364;2023-04-29T09:14:57;95035.41;;;17.55;41.56
28626;BME280;18905;42.668;23.364;2023-04-29T09:17:46;95044.72;;;17.73;42.87
28626;BME280;18905;42.668;23.364;2023-04-29T09:25:15;94903.41;;;19.14;38.81
28626;BME280;18905;42.668;23.364;2023-04-29T09:27:40;94960.31;;;18.98;38.93
28626;BME280;18905;42.668;23.364;2023-04-29T09:30:07;94892.84;;;18.47;42.64
28626;BME280;18905;42.668;23.364;2023-04-29T09:32:34;95015.25;;;18.57;41.41
28626;BME280;18905;42.668;23.364;2023-04-29T09:37:46;94929.91;;;17.44;39.78
28626;BME280;18905;42.668;23.364;2023-04-29T09:40:28;95008.09;;;17.78;40.84
28626;BME280;18905;42.668;23.364;2023-04-29T09:42:55;95013.63;;;17.59;41.64
28626;BME280;18905;42.668;23.364;2023-04-29T09:45:33;95016.19;;;17.71;43.95
28626;BME280;18905;42.668;23.364;2023-04-29T09:48:06;94962.84;;;17.13;42.47
28626;BME280;18905;42.668;23.364;2023-04-29T09:50:33;94894.84;;;17.23;43.11
28626;BME280;18905;42.668;23.364;2023-04-29T09:53:02;95000.84;;;18.34;40.48
28626;BME280;18905;42.668;23.364;2023-04-29T09:55:28;94882.09;;;17.31;41.08
28626;BME280;18905;42.668;23.364;2023-04-29T09:57:54;94956.94;;;18.49;41.10
28626;BME280;18905;42.668;23.364;2023-04-29T10:00:20;94850.72;;;17.40;40.73
28626;BME280;18905;42.668;23.364;2023-04-29T10:02:47;94855.97;;;17.07;41.04
28626;BME280;18905;42.668;23.364;2023-04-29T10:05:14;94984.13;;;17.90;40.92
28626;BME280;18905;42.668;23.364;2023-04-29T10:07:42;94850.06;;;17.76;39.94
28626;BME280;18905;42.668;23.364;2023-04-29T10:10:09;94891.22;;;17.87;39.86
28626;BME280;18905;42.668;23.364;2023-04-29T10:12:39;94849.44;;;17.38;40.05
28626;BME280;18905;42.668;23.364;2023-04-29T10:15:21;94961.13;;;18.69;40.39
28626;BME280;18905;42.668;23.364;2023-04-29T10:20:57;94836.69;;;18.23;39.59
28626;BME280;18905;42.668;23.364;2023-04-29T10:23:24;94907.75;;;17.71;40.21
28626;BME280;18905;42.668;23.364;2023-04-29T10:25:52;94826.25;;;17.47;40.85
28626;BME280;18905;42.668;23.364;2023-04-29T10:28:21;94930.09;;;18.58;39.08
28626;BME280;18905;42.668;23.364;2023-04-29T10:30:50;94901.72;;;17.85;39.53
28626;BME280;18905;42.668;23.364;2023-04-29T10:33:18;94805.72;;;17.08;40.51
28626;BME280;18905;42.668;23.364;2023-04-29T10:35:47;94953.56;;;18.07;40.35
28626;BME280;18905;42.668;23.364;2023-04-29T10:38:26;94865.31;;;17.51;39.75
28626;BME280;18905;42.668;23.364;2023-04-29T10:40:53;94812.97;;;16.18;40.98
28626;BME280;18905;42.668;23.364;2023-04-29T10:43:24;94948.84;;;17.14;41.29
28626;BME280;18905;42.668;23.364;2023-04-29T10:46:24;94887.94;;;17.52;40.79
28626;BME280;18905;42.668;23.364;2023-04-29T10:49:16;94861.06;;;16.86;40.00
28626;BME280;18905;42.668;23.364;2023-04-29T10:51:45;94954.22;;;17.52;41.79
28626;BME280;18905;42.668;23.364;2023-04-29T10:56:57;94790.38;;;17.00;40.12
28626;BME280;18905;42.668;23.364;2023-04-29T11:01:58;94843.00;;;17.72;38.49
28626;BME280;18905;42.668;23.364;2023-04-29T11:04:24;94813.97;;;17.60;38.08
28626;BME280;18905;42.668;23.364;2023-04-29T11:06:54;94779.88;;;17.25;38.39
28626;BME280;18905;42.668;23.364;2023-04-29T11:09:24;94936.47;;;17.62;40.49
28626;BME280;18905;42.668;23.364;2023-04-29T11:11:55;94944.97;;;18.05;41.12
28626;BME280;18905;42.668;23.364;2023-04-29T11:14:50;94941.38;;;18.53;38.15
28626;BME280;18905;42.668;23.364;2023-04-29T11:17:18;94872.34;;;18.04;37.82
28626;BME280;18905;42.668;23.364;2023-04-29T11:20:04;94922.19;;;18.50;36.77
28626;BME280;18905;42.668;23.364;2023-04-29T11:22:36;94932.97;;;18.13;36.31
28626;BME280;18905;42.668;23.364;2023-04-29T11:25:06;94898.84;;;18.00;35.35
28626;BME280;18905;42.668;23.364;2023-04-29T11:27:37;94823.06;;;17.68;35.18
28626;BME280;18905;42.668;23.364;2023-04-29T11:30:05;94852.56;;;17.59;36.32
28626;BME280;18905;42.668;23.364;2023-04-29T11:32:39;94885.13;;;17.48;37.70
28626;BME280;18905;42.668;23.364;2023-04-29T11:35:16;94814.13;;;17.22;38.44
28626;BME280;18905;42.668;23.364;2023-04-29T11:37:46;94794.53;;;17.39;38.30
28626;BME280;18905;42.668;23.364;2023-04-29T11:40:13;94889.56;;;18.08;39.03
28626;BME280;18905;42.668;23.364;2023-04-29T11:42:46;94785.69;;;17.23;39.24
28626;BME280;18905;42.668;23.364;2023-04-29T11:45:16;94925.59;;;18.17;37.43
28626;BME280;18905;42.668;23.364;2023-04-29T11:47:44;94796.09;;;17.66;37.55
28626;BME280;18905;42.668;23.364;2023-04-29T11:50:11;94792.94;;;17.61;36.90
28626;BME280;18905;42.668;23.364;2023-04-29T11:52:38;94875.53;;;18.10;36.04
28626;BME280;18905;42.668;23.364;2023-04-29T11:55:11;94893.25;;;17.93;37.85
28626;BME280;18905;42.668;23.364;2023-04-29T11:57:41;94928.41;;;17.46;39.00
28626;BME280;18905;42.668;23.364;2023-04-29T12:00:09;94914.84;;;17.76;39.49
28626;BME280;18905;42.668;23.364;2023-04-29T12:02:43;94786.28;;;16.46;39.70
28626;BME280;18905;42.668;23.364;2023-04-29T12:05:10;94772.81;;;16.34;40.69
28626;BME280;18905;42.668;23.364;2023-04-29T12:07:38;94863.91;;;17.16;40.81
28626;BME280;18905;42.668;23.364;2023-04-29T12:10:09;94919.00;;;17.02;43.35
28626;BME280;18905;42.668;23.364;2023-04-29T12:12:36;94915.44;;;17.21;42.56
28626;BME280;18905;42.668;23.364;2023-04-29T12:15:07;94832.22;;;17.08;42.09
28626;BME280;18905;42.668;23.364;2023-04-29T12:17:34;94872.94;;;16.97;42.43
28626;BME280;18905;42.668;23.364;2023-04-29T12:20:07;94834.03;;;17.00;43.63
28626;BME280;18905;42.668;23.364;2023-04-29T12:22:40;94773.47;;;16.69;43.71
28626;BME280;18905;42.668;23.364;2023-04-29T12:25:15;94769.22;;;16.49;43.17
28626;BME280;18905;42.668;23.364;2023-04-29T12:27:46;94833.03;;;17.34;42.23
28626;BME280;18905;42.668;23.364;2023-04-29T12:30:14;94756.81;;;16.96;40.37
28626;BME280;18905;42.668;23.364;2023-04-29T12:32:45;94823.13;;;17.45;40.83
28626;BME280;18905;42.668;23.364;2023-04-29T12:35:16;94759.91;;;17.43;40.35
28626;BME280;18905;42.668;23.364;2023-04-29T12:37:48;94865.97;;;17.45;42.03
28626;BME280;18905;42.668;23.364;2023-04-29T12:40:16;94796.31;;;16.83;43.37
28626;BME280;18905;42.668;23.364;2023-04-29T12:42:45;94895.16;;;17.63;43.09
28626;BME280;18905;42.668;23.364;2023-04-29T12:45:32;94776.03;;;16.81;43.33
28626;BME280;18905;42.668;23.364;2023-04-29T12:47:59;94747.47;;;16.97;43.60
28626;BME280;18905;42.668;23.364;2023-04-29T12:50:34;94864.16;;;17.78;44.01
28626;BME280;18905;42.668;23.364;2023-04-29T12:53:05;94880.59;;;18.08;43.49
28626;BME280;18905;42.668;23.364;2023-04-29T12:55:36;94888.63;;;18.23;44.20
28626;BME280;18905;42.668;23.364;2023-04-29T12:58:03;94732.59;;;17.43;43.05
28626;BME280;18905;42.668;23.364;2023-04-29T13:00:32;94719.88;;;17.28;43.40
28626;BME280;18905;42.668;23.364;2023-04-29T13:03:07;94795.34;;;17.66;43.08
28626;BME280;18905;42.668;23.364;2023-04-29T13:05:35;94815.94;;;17.89;43.58
28626;BME280;18905;42.668;23.364;2023-04-29T13:08:01;94751.22;;;17.93;42.24
28626;BME280;18905;42.668;23.364;2023-04-29T13:10:27;94881.53;;;18.81;42.95
28626;BME280;18905;42.668;23.364;2023-04-29T13:12:53;94794.06;;;18.48;43.29
28626;BME280;18905;42.668;23.364;2023-04-29T13:15:19;94890.66;;;18.92;42.83
28626;BME280;18905;42.668;23.364;2023-04-29T13:17:45;94741.09;;;17.94;42.56
28626;BME280;18905;42.668;23.364;2023-04-29T13:20:13;94733.03;;;17.45;43.49
28626;BME280;18905;42.668;23.364;2023-04-29T13:22:44;94884.19;;;18.71;43.51
28626;BME280;18905;42.668;23.364;2023-04-29T13:25:10;94756.63;;;17.34;44.33
28626;BME280;18905;42.668;23.364;2023-04-29T13:27:37;94756.94;;;17.29;44.39
28626;BME280;18905;42.668;23.364;2023-04-29T13:30:04;94801.97;;;16.94;45.16